createdAt,value
2023-07-03T00:04:39.656Z,26.05
2023-07-03T00:09:42.939Z,26.03
2023-07-03T00:14:46.588Z,26.03
2023-07-03T00:19:48.522Z,26.01
2023-07-03T00:24:50.616Z,26.03
2023-07-03T00:29:52.728Z,26.03
2023-07-03T00:34:55.231Z,26.03
2023-07-03T00:39:57.284Z,26.01
2023-07-03T00:44:59.312Z,26.02
2023-07-03T00:50:01.484Z,26.02
2023-07-03T00:55:03.739Z,26.01
2023-07-03T01:00:06.491Z,26.00
2023-07-03T01:05:15.799Z,26.00
2023-07-03T01:10:25.386Z,26.00
2023-07-03T01:15:31.464Z,26.01
2023-07-03T01:20:52.555Z,26.00
2023-07-03T01:25:58.677Z,26.01
2023-07-03T01:31:02.064Z,26.01
2023-07-03T01:36:04.864Z,26.01
2023-07-03T01:41:07.340Z,26.01
2023-07-03T01:46:09.949Z,26.02
2023-07-03T01:51:20.395Z,26.01
2023-07-03T01:56:33.802Z,26.01
2023-07-03T02:02:19.654Z,26.00
2023-07-03T02:07:22.416Z,26.01
2023-07-03T02:12:24.561Z,26.01
2023-07-03T02:17:28.122Z,26.00
2023-07-03T02:22:30.395Z,25.99
2023-07-03T02:27:32.455Z,25.99
2023-07-03T02:32:39.679Z,25.99
2023-07-03T02:37:41.797Z,25.99
2023-07-03T02:42:43.902Z,25.99
2023-07-03T02:47:45.962Z,25.99
2023-07-03T02:52:50.812Z,25.98
2023-07-03T02:57:53.347Z,25.98
2023-07-03T03:02:55.886Z,25.98
2023-07-03T03:07:58.300Z,25.98
2023-07-03T03:13:00.446Z,25.97
2023-07-03T03:18:05.602Z,25.96
2023-07-03T03:23:07.853Z,25.96
2023-07-03T03:28:10.692Z,25.97
2023-07-03T03:33:14.533Z,25.97
2023-07-03T03:38:16.760Z,25.96
2023-07-03T03:43:18.998Z,25.97
2023-07-03T03:48:21.520Z,25.96
2023-07-03T03:53:24.370Z,25.97
2023-07-03T03:58:26.559Z,25.96
2023-07-03T04:03:29.159Z,25.96
2023-07-03T04:08:31.275Z,25.96
2023-07-03T04:13:33.471Z,25.97
2023-07-03T04:18:35.730Z,25.97
2023-07-03T04:23:37.808Z,25.96
2023-07-03T04:28:39.972Z,25.97
2023-07-03T04:33:43.799Z,25.95
2023-07-03T04:38:45.900Z,25.95
2023-07-03T04:43:50.343Z,25.95
2023-07-03T04:49:00.816Z,25.95
2023-07-03T04:54:04.085Z,25.96
2023-07-03T04:59:06.124Z,25.93
2023-07-03T05:04:08.433Z,25.94
2023-07-03T05:09:10.599Z,25.96
2023-07-03T05:14:12.753Z,25.92
2023-07-03T05:19:14.881Z,25.94
2023-07-03T05:24:17.070Z,25.95
2023-07-03T05:29:19.289Z,25.95
2023-07-03T05:34:21.525Z,25.93
2023-07-03T05:39:23.946Z,25.93
2023-07-03T05:44:26.666Z,25.94
2023-07-03T05:49:28.970Z,25.93
2023-07-03T05:54:31.219Z,25.93
2023-07-03T05:59:34.601Z,25.93
2023-07-03T06:04:36.925Z,25.93
2023-07-03T06:09:39.348Z,25.92
2023-07-03T06:14:41.535Z,25.93
2023-07-03T06:19:43.621Z,25.93
2023-07-03T06:24:47.004Z,25.93
2023-07-03T06:29:49.134Z,25.91
2023-07-03T06:34:51.287Z,25.93
2023-07-03T06:39:53.609Z,25.93
2023-07-03T06:44:55.800Z,25.91
2023-07-03T06:49:57.952Z,25.92
2023-07-03T06:55:00.113Z,25.92
2023-07-03T07:00:02.727Z,25.93
2023-07-03T07:05:05.164Z,25.92
2023-07-03T07:10:07.852Z,25.92
2023-07-03T07:15:10.315Z,25.88
2023-07-03T07:20:13.079Z,25.93
2023-07-03T07:25:15.396Z,25.92
2023-07-03T07:30:17.587Z,25.92
2023-07-03T07:35:20.762Z,25.91
2023-07-03T07:40:22.939Z,25.91
2023-07-03T07:45:25.063Z,25.92
2023-07-03T07:50:29.196Z,25.91
2023-07-03T07:55:32.649Z,25.93
2023-07-03T08:00:35.991Z,25.92
2023-07-03T08:05:38.614Z,25.92
2023-07-03T08:10:42.236Z,25.91
2023-07-03T08:15:46.951Z,25.90
2023-07-03T08:20:50.934Z,25.91
2023-07-03T08:25:55.659Z,25.92
2023-07-03T08:30:59.465Z,25.92
2023-07-03T08:41:06.691Z,25.91
2023-07-03T08:46:13.129Z,25.91
2023-07-03T08:51:19.872Z,25.91
2023-07-03T08:56:27.962Z,25.92
2023-07-03T09:01:59.291Z,25.91
2023-07-03T09:07:11.318Z,25.91
2023-07-03T09:12:36.110Z,25.90
2023-07-03T09:17:40.188Z,25.93
2023-07-03T09:22:48.623Z,25.92
2023-07-03T09:27:54.848Z,25.93
2023-07-03T09:32:57.320Z,25.92
2023-07-03T09:38:00.781Z,25.91
2023-07-03T09:43:04.453Z,25.92
2023-07-03T09:48:17.578Z,25.92
2023-07-03T09:53:25.809Z,25.92
2023-07-03T09:58:29.802Z,25.92
2023-07-03T10:03:35.193Z,25.93
2023-07-03T10:08:43.187Z,25.92
2023-07-03T10:13:49.763Z,25.94
2023-07-03T10:18:56.597Z,25.93
2023-07-03T10:23:59.998Z,25.92
2023-07-03T10:29:23.102Z,25.94
2023-07-03T10:35:03.560Z,25.91
2023-07-03T10:40:38.499Z,25.91
2023-07-03T10:45:40.721Z,25.94
2023-07-03T10:51:13.753Z,25.91
2023-07-03T10:56:37.238Z,25.91
2023-07-03T11:01:50.886Z,25.91
2023-07-03T11:07:24.564Z,25.92
2023-07-03T11:12:46.833Z,25.92
2023-07-03T11:23:40.309Z,26.09
2023-07-03T11:28:47.482Z,26.15
2023-07-03T11:44:34.381Z,26.28
2023-07-03T11:49:44.029Z,26.31
2023-07-03T11:54:46.340Z,26.37
2023-07-03T11:59:48.434Z,26.29
2023-07-03T12:04:51.990Z,26.23
2023-07-03T12:09:54.104Z,26.17
2023-07-03T12:15:03.375Z,26.13
2023-07-03T12:20:12.693Z,26.11
2023-07-03T12:25:29.609Z,26.09
2023-07-03T12:30:32.267Z,26.10
2023-07-03T12:35:37.124Z,26.11
2023-07-03T12:40:43.590Z,26.10
2023-07-03T12:45:53.096Z,26.09
2023-07-03T12:50:59.242Z,26.09
2023-07-03T12:56:07.658Z,26.11
2023-07-03T13:01:10.512Z,26.09
2023-07-03T13:06:22.281Z,26.09
2023-07-03T13:11:46.660Z,26.08
2023-07-03T13:16:57.134Z,26.09
2023-07-03T13:22:00.807Z,26.11
2023-07-03T13:27:03.274Z,26.09
2023-07-03T13:32:20.082Z,26.10
2023-07-03T13:37:28.161Z,26.11
2023-07-03T13:42:31.502Z,26.12
2023-07-03T13:47:33.688Z,26.11
2023-07-03T13:52:38.325Z,26.12
2023-07-03T13:57:40.443Z,26.12
2023-07-03T14:02:48.646Z,26.14
2023-07-03T14:07:51.344Z,26.14
2023-07-03T14:12:53.994Z,26.15
2023-07-03T14:17:56.319Z,26.15
2023-07-03T14:22:58.847Z,26.15
2023-07-03T14:28:00.969Z,26.16
2023-07-03T14:33:03.402Z,26.16
2023-07-03T14:38:06.449Z,26.15
2023-07-03T14:43:10.569Z,26.17
2023-07-03T14:48:12.880Z,26.17
2023-07-03T14:53:15.662Z,26.15
2023-07-03T14:58:17.701Z,26.18
2023-07-03T15:03:20.138Z,26.18
2023-07-03T15:08:22.615Z,26.18
2023-07-03T15:13:24.759Z,26.20
2023-07-03T15:18:27.283Z,26.19
2023-07-03T15:23:29.351Z,26.18
2023-07-03T15:28:31.370Z,26.17
2023-07-03T15:33:34.560Z,26.17
2023-07-03T15:38:36.921Z,26.17
2023-07-03T15:43:39.150Z,26.18
2023-07-03T15:48:42.013Z,26.18
2023-07-03T15:53:44.347Z,26.18
2023-07-03T15:58:51.667Z,26.18
2023-07-03T16:03:56.866Z,26.18
2023-07-03T16:09:00.623Z,26.18
2023-07-03T16:14:03.823Z,26.22
2023-07-03T16:19:05.819Z,26.21
2023-07-03T16:24:08.452Z,26.24
2023-07-03T16:29:10.529Z,26.24
2023-07-03T16:34:12.599Z,26.25
2023-07-03T16:39:14.706Z,26.27
2023-07-03T16:44:16.834Z,26.30
2023-07-03T16:49:19.037Z,26.34
2023-07-03T16:54:21.287Z,26.36
2023-07-03T16:59:23.390Z,26.35
2023-07-03T17:04:25.452Z,26.38
2023-07-03T17:09:27.488Z,26.36
2023-07-03T17:14:30.333Z,26.36
2023-07-03T17:19:33.954Z,26.36
2023-07-03T17:24:36.099Z,26.36
2023-07-03T17:29:38.393Z,26.36
2023-07-03T17:34:40.745Z,26.36
2023-07-03T17:39:42.827Z,26.38
2023-07-03T17:44:44.800Z,26.37
2023-07-03T17:49:47.210Z,26.39
2023-07-03T17:55:03.317Z,26.41
2023-07-03T18:00:25.432Z,26.42
2023-07-03T18:05:51.733Z,26.40
2023-07-03T18:11:00.083Z,26.38
2023-07-03T18:16:02.710Z,26.39
2023-07-03T18:21:05.411Z,26.38
2023-07-03T18:26:07.552Z,26.35
2023-07-03T18:31:09.706Z,26.34
2023-07-03T18:36:11.870Z,26.32
2023-07-03T18:41:16.908Z,26.27
2023-07-03T18:46:19.152Z,26.31
2023-07-03T18:51:24.424Z,26.32
2023-07-03T18:56:26.663Z,26.30
2023-07-03T19:01:28.858Z,26.30
2023-07-03T19:06:31.622Z,26.29
2023-07-03T19:11:33.723Z,26.27
2023-07-03T19:16:35.981Z,26.27
2023-07-03T19:21:38.043Z,26.27
2023-07-03T19:26:40.119Z,26.33
2023-07-03T19:31:42.337Z,26.38
2023-07-03T19:36:44.739Z,26.43
2023-07-03T19:41:46.778Z,26.39
2023-07-03T19:46:48.899Z,26.37
2023-07-03T19:51:51.005Z,26.33
2023-07-03T19:56:53.198Z,26.31
2023-07-03T20:01:55.363Z,26.35
2023-07-03T20:06:57.442Z,26.33
2023-07-03T20:11:59.448Z,26.33
2023-07-03T20:17:01.662Z,26.33
2023-07-03T20:22:03.980Z,26.30
2023-07-03T20:27:06.563Z,26.35
2023-07-03T20:32:21.477Z,26.34
2023-07-03T20:37:23.593Z,26.33
2023-07-03T20:42:26.208Z,26.35
2023-07-03T20:47:32.108Z,26.34
2023-07-03T20:52:36.748Z,26.35
2023-07-03T20:57:39.389Z,26.42
2023-07-03T21:02:42.436Z,26.44
2023-07-03T21:07:44.388Z,26.40
2023-07-03T21:12:46.742Z,26.45
2023-07-03T21:17:48.883Z,26.49
2023-07-03T21:22:51.033Z,26.47
2023-07-03T21:27:53.110Z,26.47
2023-07-03T21:32:55.154Z,26.47
2023-07-03T21:37:57.158Z,26.49
2023-07-03T21:42:59.654Z,26.46
2023-07-03T21:48:01.779Z,26.47
2023-07-03T21:53:03.947Z,26.51
2023-07-03T21:58:06.048Z,26.50
2023-07-03T22:03:08.634Z,26.54
2023-07-03T22:08:10.756Z,26.50
2023-07-03T22:13:12.936Z,26.52
2023-07-03T22:18:16.214Z,26.50
2023-07-03T22:23:31.310Z,26.50
2023-07-03T22:28:34.363Z,26.50
2023-07-03T22:33:36.622Z,26.49
2023-07-03T22:38:39.080Z,26.39
2023-07-03T22:43:41.167Z,26.40
2023-07-03T22:48:43.529Z,26.40
2023-07-03T22:53:49.506Z,26.42
2023-07-03T22:58:51.583Z,26.41
2023-07-03T23:03:53.704Z,26.39
2023-07-03T23:08:56.275Z,26.37
2023-07-03T23:14:01.045Z,26.39
2023-07-03T23:19:03.157Z,26.35
2023-07-03T23:24:05.492Z,26.35
2023-07-03T23:29:09.020Z,26.33
2023-07-03T23:34:12.023Z,26.34
2023-07-03T23:39:15.411Z,26.34
2023-07-03T23:44:17.360Z,26.29
2023-07-03T23:49:19.404Z,26.26
2023-07-03T23:54:25.238Z,26.29
2023-07-03T23:59:28.199Z,26.27
